sensor_id;sensor_type;location;lat;lon;timestamp;temperature;humidity
10492;DHT22;5293;51.464;-2.566;2024-01-15T00:02:19;5.80;99.90
10492;DHT22;5293;51.464;-2.566;2024-01-15T00:04:45;5.80;99.90
10492;DHT22;5293;51.464;-2.566;2024-01-15T00:07:10;5.80;99.90
10492;DHT22;5293;51.464;-2.566;2024-01-15T00:09:36;5.80;99.90
10492;DHT22;5293;51.464;-2.566;2024-01-15T00:12:02;5.80;99.90
10492;DHT22;5293;51.464;-2.566;2024-01-15T00:14:28;5.90;99.90
10492;DHT22;5293;51.464;-2.566;2024-01-15T00:16:54;5.90;99.90
10492;DHT22;5293;51.464;-2.566;2024-01-15T00:19:24;5.90;99.90
10492;DHT22;5293;51.464;-2.566;2024-01-15T00:21:49;5.80;99.90
10492;DHT22;5293;51.464;-2.566;2024-01-15T00:24:15;5.90;99.90
10492;DHT22;5293;51.464;-2.566;2024-01-15T00:26:41;5.90;99.90
10492;DHT22;5293;51.464;-2.566;2024-01-15T00:29:07;5.90;99.90
10492;DHT22;5293;51.464;-2.566;2024-01-15T00:31:33;5.90;99.90
10492;DHT22;5293;51.464;-2.566;2024-01-15T00:33:59;5.90;99.90
10492;DHT22;5293;51.464;-2.566;2024-01-15T00:36:25;5.90;99.90
10492;DHT22;5293;51.464;-2.566;2024-01-15T00:38:50;5.90;99.90
10492;DHT22;5293;51.464;-2.566;2024-01-15T00:41:17;6.00;99.90
10492;DHT22;5293;51.464;-2.566;2024-01-15T00:43:47;6.00;99.90
10492;DHT22;5293;51.464;-2.566;2024-01-15T00:46:14;5.90;99.90
10492;DHT22;5293;51.464;-2.566;2024-01-15T00:48:40;5.90;99.90
10492;DHT22;5293;51.464;-2.566;2024-01-15T00:51:06;6.00;99.90
10492;DHT22;5293;51.464;-2.566;2024-01-15T00:53:31;6.00;99.90
10492;DHT22;5293;51.464;-2.566;2024-01-15T00:55:57;6.00;99.90
10492;DHT22;5293;51.464;-2.566;2024-01-15T00:58:23;6.00;99.90
10492;DHT22;5293;51.464;-2.566;2024-01-15T01:00:48;5.90;99.90
10492;DHT22;5293;51.464;-2.566;2024-01-15T01:03:14;5.90;99.90
10492;DHT22;5293;51.464;-2.566;2024-01-15T01:05:40;5.90;99.90
10492;DHT22;5293;51.464;-2.566;2024-01-15T01:08:05;5.90;99.90
10492;DHT22;5293;51.464;-2.566;2024-01-15T01:10:31;5.90;99.90
10492;DHT22;5293;51.464;-2.566;2024-01-15T01:12:57;5.90;99.90
10492;DHT22;5293;51.464;-2.566;2024-01-15T01:15:22;6.00;99.90
10492;DHT22;5293;51.464;-2.566;2024-01-15T01:17:48;6.00;99.90
10492;DHT22;5293;51.464;-2.566;2024-01-15T01:20:14;5.90;99.90
10492;DHT22;5293;51.464;-2.566;2024-01-15T01:22:40;5.90;99.90
10492;DHT22;5293;51.464;-2.566;2024-01-15T01:25:07;5.80;99.90
10492;DHT22;5293;51.464;-2.566;2024-01-15T01:27:33;5.80;99.90
10492;DHT22;5293;51.464;-2.566;2024-01-15T01:29:59;5.90;99.90
10492;DHT22;5293;51.464;-2.566;2024-01-15T01:32:24;5.80;99.90
10492;DHT22;5293;51.464;-2.566;2024-01-15T01:34:50;5.80;99.90
10492;DHT22;5293;51.464;-2.566;2024-01-15T01:37:16;5.70;99.90
10492;DHT22;5293;51.464;-2.566;2024-01-15T01:39:42;5.80;99.90
10492;DHT22;5293;51.464;-2.566;2024-01-15T01:42:08;5.70;99.90
10492;DHT22;5293;51.464;-2.566;2024-01-15T01:44:34;5.60;99.90
10492;DHT22;5293;51.464;-2.566;2024-01-15T01:47:00;5.70;99.90
10492;DHT22;5293;51.464;-2.566;2024-01-15T01:49:27;5.50;99.90
10492;DHT22;5293;51.464;-2.566;2024-01-15T01:51:58;5.50;99.90
10492;DHT22;5293;51.464;-2.566;2024-01-15T01:54:26;5.50;99.90
10492;DHT22;5293;51.464;-2.566;2024-01-15T01:56:52;5.50;99.90
10492;DHT22;5293;51.464;-2.566;2024-01-15T01:59:18;5.50;99.90
10492;DHT22;5293;51.464;-2.566;2024-01-15T02:01:44;5.40;99.90
10492;DHT22;5293;51.464;-2.566;2024-01-15T02:04:11;5.30;99.90
10492;DHT22;5293;51.464;-2.566;2024-01-15T02:06:37;5.30;99.90
10492;DHT22;5293;51.464;-2.566;2024-01-15T02:09:03;5.20;99.90
10492;DHT22;5293;51.464;-2.566;2024-01-15T02:11:31;5.20;99.90
10492;DHT22;5293;51.464;-2.566;2024-01-15T02:13:57;5.30;99.90
10492;DHT22;5293;51.464;-2.566;2024-01-15T02:16:22;5.30;99.90
10492;DHT22;5293;51.464;-2.566;2024-01-15T02:18:48;5.30;99.90
10492;DHT22;5293;51.464;-2.566;2024-01-15T02:21:14;5.30;99.90
10492;DHT22;5293;51.464;-2.566;2024-01-15T02:23:39;5.40;99.90
10492;DHT22;5293;51.464;-2.566;2024-01-15T02:26:05;5.40;99.90
10492;DHT22;5293;51.464;-2.566;2024-01-15T02:28:32;5.40;99.90
10492;DHT22;5293;51.464;-2.566;2024-01-15T02:30:58;5.40;99.90
10492;DHT22;5293;51.464;-2.566;2024-01-15T02:33:24;5.30;99.90
10492;DHT22;5293;51.464;-2.566;2024-01-15T02:35:49;5.40;99.90
10492;DHT22;5293;51.464;-2.566;2024-01-15T02:38:16;5.40;99.90
10492;DHT22;5293;51.464;-2.566;2024-01-15T02:40:42;5.40;99.90
10492;DHT22;5293;51.464;-2.566;2024-01-15T02:43:08;5.40;99.90
10492;DHT22;5293;51.464;-2.566;2024-01-15T02:45:34;5.30;99.90
10492;DHT22;5293;51.464;-2.566;2024-01-15T02:47:59;5.30;99.90
10492;DHT22;5293;51.464;-2.566;2024-01-15T02:50:25;5.30;99.90
10492;DHT22;5293;51.464;-2.566;2024-01-15T02:52:51;5.20;99.90
10492;DHT22;5293;51.464;-2.566;2024-01-15T02:55:16;5.10;99.90
10492;DHT22;5293;51.464;-2.566;2024-01-15T02:57:42;5.10;99.90
10492;DHT22;5293;51.464;-2.566;2024-01-15T03:00:08;5.10;99.90
10492;DHT22;5293;51.464;-2.566;2024-01-15T03:02:38;5.00;99.90
10492;DHT22;5293;51.464;-2.566;2024-01-15T03:05:09;5.00;99.90
10492;DHT22;5293;51.464;-2.566;2024-01-15T03:07:35;4.90;99.90
10492;DHT22;5293;51.464;-2.566;2024-01-15T03:10:01;4.90;99.90
10492;DHT22;5293;51.464;-2.566;2024-01-15T03:12:27;4.80;99.90
10492;DHT22;5293;51.464;-2.566;2024-01-15T03:14:53;4.80;99.90
10492;DHT22;5293;51.464;-2.566;2024-01-15T03:17:18;4.80;99.90
10492;DHT22;5293;51.464;-2.566;2024-01-15T03:19:44;4.90;99.90
10492;DHT22;5293;51.464;-2.566;2024-01-15T03:22:10;4.80;99.90
10492;DHT22;5293;51.464;-2.566;2024-01-15T03:24:36;4.80;99.90
10492;DHT22;5293;51.464;-2.566;2024-01-15T03:27:02;4.90;99.90
10492;DHT22;5293;51.464;-2.566;2024-01-15T03:29:27;4.90;99.90
10492;DHT22;5293;51.464;-2.566;2024-01-15T03:31:53;5.00;99.90
10492;DHT22;5293;51.464;-2.566;2024-01-15T03:34:19;5.00;99.90
10492;DHT22;5293;51.464;-2.566;2024-01-15T03:36:45;5.00;99.90
10492;DHT22;5293;51.464;-2.566;2024-01-15T03:39:10;5.10;99.90
10492;DHT22;5293;51.464;-2.566;2024-01-15T03:41:36;5.00;99.90
10492;DHT22;5293;51.464;-2.566;2024-01-15T03:44:02;5.00;99.90
10492;DHT22;5293;51.464;-2.566;2024-01-15T03:46:28;5.00;99.90
10492;DHT22;5293;51.464;-2.566;2024-01-15T03:48:53;5.00;99.90
10492;DHT22;5293;51.464;-2.566;2024-01-15T03:51:19;5.00;99.90
10492;DHT22;5293;51.464;-2.566;2024-01-15T03:53:45;4.90;99.90
10492;DHT22;5293;51.464;-2.566;2024-01-15T03:56:11;4.90;99.90
10492;DHT22;5293;51.464;-2.566;2024-01-15T03:58:36;5.00;99.90
10492;DHT22;5293;51.464;-2.566;2024-01-15T04:01:03;5.10;99.90
10492;DHT22;5293;51.464;-2.566;2024-01-15T04:03:28;5.20;99.90
10492;DHT22;5293;51.464;-2.566;2024-01-15T04:05:54;5.10;99.90
10492;DHT22;5293;51.464;-2.566;2024-01-15T04:08:20;5.00;99.90
10492;DHT22;5293;51.464;-2.566;2024-01-15T04:10:45;5.10;99.90
10492;DHT22;5293;51.464;-2.566;2024-01-15T04:13:11;5.00;99.90
10492;DHT22;5293;51.464;-2.566;2024-01-15T04:15:36;5.00;99.90
10492;DHT22;5293;51.464;-2.566;2024-01-15T04:18:03;5.00;99.90
10492;DHT22;5293;51.464;-2.566;2024-01-15T04:20:29;4.90;99.90
10492;DHT22;5293;51.464;-2.566;2024-01-15T04:22:54;5.00;99.90
10492;DHT22;5293;51.464;-2.566;2024-01-15T04:25:20;4.90;99.90
10492;DHT22;5293;51.464;-2.566;2024-01-15T04:27:46;4.80;99.90
10492;DHT22;5293;51.464;-2.566;2024-01-15T04:30:12;4.80;99.90
10492;DHT22;5293;51.464;-2.566;2024-01-15T04:32:37;4.70;99.90
10492;DHT22;5293;51.464;-2.566;2024-01-15T04:35:03;4.60;99.90
10492;DHT22;5293;51.464;-2.566;2024-01-15T04:37:29;4.60;99.90
10492;DHT22;5293;51.464;-2.566;2024-01-15T04:39:54;4.60;99.90
10492;DHT22;5293;51.464;-2.566;2024-01-15T04:42:23;4.60;99.90
10492;DHT22;5293;51.464;-2.566;2024-01-15T04:44:49;4.50;99.90
10492;DHT22;5293;51.464;-2.566;2024-01-15T04:47:15;4.40;99.90
10492;DHT22;5293;51.464;-2.566;2024-01-15T04:49:42;4.40;99.90
10492;DHT22;5293;51.464;-2.566;2024-01-15T04:52:07;4.40;99.90
10492;DHT22;5293;51.464;-2.566;2024-01-15T04:54:36;4.30;99.90
10492;DHT22;5293;51.464;-2.566;2024-01-15T04:57:01;4.20;99.90
10492;DHT22;5293;51.464;-2.566;2024-01-15T04:59:28;4.30;99.90
10492;DHT22;5293;51.464;-2.566;2024-01-15T05:01:54;4.10;99.90
10492;DHT22;5293;51.464;-2.566;2024-01-15T05:04:20;4.10;99.90
10492;DHT22;5293;51.464;-2.566;2024-01-15T05:06:45;4.10;99.90
10492;DHT22;5293;51.464;-2.566;2024-01-15T05:09:11;4.20;99.90
10492;DHT22;5293;51.464;-2.566;2024-01-15T05:11:39;4.20;99.90
10492;DHT22;5293;51.464;-2.566;2024-01-15T05:14:04;4.20;99.90
10492;DHT22;5293;51.464;-2.566;2024-01-15T05:16:30;4.10;99.90
10492;DHT22;5293;51.464;-2.566;2024-01-15T05:18:56;4.10;99.90
10492;DHT22;5293;51.464;-2.566;2024-01-15T05:21:21;4.10;99.90
10492;DHT22;5293;51.464;-2.566;2024-01-15T05:23:47;4.10;99.90
10492;DHT22;5293;51.464;-2.566;2024-01-15T05:26:13;4.00;99.90
10492;DHT22;5293;51.464;-2.566;2024-01-15T05:28:40;3.90;99.90
10492;DHT22;5293;51.464;-2.566;2024-01-15T05:31:06;3.90;99.90
10492;DHT22;5293;51.464;-2.566;2024-01-15T05:33:31;4.00;99.90
10492;DHT22;5293;51.464;-2.566;2024-01-15T05:35:57;3.90;99.90
10492;DHT22;5293;51.464;-2.566;2024-01-15T05:38:24;4.00;99.90
10492;DHT22;5293;51.464;-2.566;2024-01-15T05:40:50;3.90;99.90
10492;DHT22;5293;51.464;-2.566;2024-01-15T05:43:15;3.90;99.90
10492;DHT22;5293;51.464;-2.566;2024-01-15T05:45:43;3.90;99.90
10492;DHT22;5293;51.464;-2.566;2024-01-15T05:48:09;3.90;99.90
10492;DHT22;5293;51.464;-2.566;2024-01-15T05:50:35;3.80;99.90
10492;DHT22;5293;51.464;-2.566;2024-01-15T05:53:00;3.90;99.90
10492;DHT22;5293;51.464;-2.566;2024-01-15T05:55:27;3.90;99.90
10492;DHT22;5293;51.464;-2.566;2024-01-15T05:57:53;3.80;99.90
10492;DHT22;5293;51.464;-2.566;2024-01-15T06:00:19;3.90;99.90
10492;DHT22;5293;51.464;-2.566;2024-01-15T06:02:44;3.80;99.90
10492;DHT22;5293;51.464;-2.566;2024-01-15T06:05:10;3.70;99.90
10492;DHT22;5293;51.464;-2.566;2024-01-15T06:07:36;3.60;99.90
10492;DHT22;5293;51.464;-2.566;2024-01-15T06:10:02;3.70;99.90
10492;DHT22;5293;51.464;-2.566;2024-01-15T06:12:28;3.70;99.90
10492;DHT22;5293;51.464;-2.566;2024-01-15T06:14:54;3.70;99.90
10492;DHT22;5293;51.464;-2.566;2024-01-15T06:17:20;3.70;99.90
10492;DHT22;5293;51.464;-2.566;2024-01-15T06:19:45;3.70;99.90
10492;DHT22;5293;51.464;-2.566;2024-01-15T06:22:11;3.70;99.90
10492;DHT22;5293;51.464;-2.566;2024-01-15T06:24:37;3.60;99.90
10492;DHT22;5293;51.464;-2.566;2024-01-15T06:27:02;3.60;99.90
10492;DHT22;5293;51.464;-2.566;2024-01-15T06:29:28;3.50;99.90
10492;DHT22;5293;51.464;-2.566;2024-01-15T06:31:54;3.40;99.90
10492;DHT22;5293;51.464;-2.566;2024-01-15T06:34:19;3.40;99.90
10492;DHT22;5293;51.464;-2.566;2024-01-15T06:36:45;3.40;99.90
10492;DHT22;5293;51.464;-2.566;2024-01-15T06:39:11;3.30;99.90
10492;DHT22;5293;51.464;-2.566;2024-01-15T06:41:36;3.20;99.90
10492;DHT22;5293;51.464;-2.566;2024-01-15T06:44:12;3.20;99.90
10492;DHT22;5293;51.464;-2.566;2024-01-15T06:46:44;3.20;99.90
10492;DHT22;5293;51.464;-2.566;2024-01-15T06:49:11;3.20;99.90
10492;DHT22;5293;51.464;-2.566;2024-01-15T06:51:36;3.20;99.90
10492;DHT22;5293;51.464;-2.566;2024-01-15T06:54:02;3.20;99.90
10492;DHT22;5293;51.464;-2.566;2024-01-15T06:56:28;3.20;99.90
10492;DHT22;5293;51.464;-2.566;2024-01-15T06:58:53;3.10;99.90
10492;DHT22;5293;51.464;-2.566;2024-01-15T07:01:19;3.10;99.90
10492;DHT22;5293;51.464;-2.566;2024-01-15T07:03:45;3.10;99.90
10492;DHT22;5293;51.464;-2.566;2024-01-15T07:06:11;3.20;99.90
10492;DHT22;5293;51.464;-2.566;2024-01-15T07:08:38;3.10;99.90
10492;DHT22;5293;51.464;-2.566;2024-01-15T07:11:04;3.20;99.90
10492;DHT22;5293;51.464;-2.566;2024-01-15T07:13:30;3.20;99.90
10492;DHT22;5293;51.464;-2.566;2024-01-15T07:15:56;3.20;99.90
10492;DHT22;5293;51.464;-2.566;2024-01-15T07:18:22;3.10;99.90
10492;DHT22;5293;51.464;-2.566;2024-01-15T07:20:48;3.10;99.90
10492;DHT22;5293;51.464;-2.566;2024-01-15T07:23:14;3.10;99.90
10492;DHT22;5293;51.464;-2.566;2024-01-15T07:25:40;3.10;99.90
10492;DHT22;5293;51.464;-2.566;2024-01-15T07:28:06;3.10;99.90
10492;DHT22;5293;51.464;-2.566;2024-01-15T07:30:31;3.00;99.90
10492;DHT22;5293;51.464;-2.566;2024-01-15T07:32:57;3.00;99.90
10492;DHT22;5293;51.464;-2.566;2024-01-15T07:35:23;2.90;99.90
10492;DHT22;5293;51.464;-2.566;2024-01-15T07:37:48;3.00;99.90
10492;DHT22;5293;51.464;-2.566;2024-01-15T07:40:14;3.00;99.90
10492;DHT22;5293;51.464;-2.566;2024-01-15T07:42:40;3.10;99.90
10492;DHT22;5293;51.464;-2.566;2024-01-15T07:45:08;3.10;99.90
10492;DHT22;5293;51.464;-2.566;2024-01-15T07:47:34;3.10;99.90
10492;DHT22;5293;51.464;-2.566;2024-01-15T07:50:00;3.10;99.90
10492;DHT22;5293;51.464;-2.566;2024-01-15T07:52:26;3.10;99.90
10492;DHT22;5293;51.464;-2.566;2024-01-15T07:54:51;3.10;99.90
10492;DHT22;5293;51.464;-2.566;2024-01-15T07:57:17;3.20;99.90
10492;DHT22;5293;51.464;-2.566;2024-01-15T07:59:42;3.10;99.90
10492;DHT22;5293;51.464;-2.566;2024-01-15T08:02:08;3.10;99.90
10492;DHT22;5293;51.464;-2.566;2024-01-15T08:04:34;3.00;99.90
10492;DHT22;5293;51.464;-2.566;2024-01-15T08:06:59;3.10;99.90
10492;DHT22;5293;51.464;-2.566;2024-01-15T08:09:25;3.10;99.90
10492;DHT22;5293;51.464;-2.566;2024-01-15T08:11:51;3.10;99.90
10492;DHT22;5293;51.464;-2.566;2024-01-15T08:14:17;3.10;99.90
10492;DHT22;5293;51.464;-2.566;2024-01-15T08:16:43;3.20;99.90
10492;DHT22;5293;51.464;-2.566;2024-01-15T08:19:10;3.20;99.90
10492;DHT22;5293;51.464;-2.566;2024-01-15T08:21:36;3.20;99.90
10492;DHT22;5293;51.464;-2.566;2024-01-15T08:24:02;3.20;99.90
10492;DHT22;5293;51.464;-2.566;2024-01-15T08:26:31;3.20;99.90
10492;DHT22;5293;51.464;-2.566;2024-01-15T08:28:57;3.20;99.90
10492;DHT22;5293;51.464;-2.566;2024-01-15T08:31:23;3.30;99.90
10492;DHT22;5293;51.464;-2.566;2024-01-15T08:33:49;3.20;99.90
10492;DHT22;5293;51.464;-2.566;2024-01-15T08:36:14;3.30;99.90
10492;DHT22;5293;51.464;-2.566;2024-01-15T08:38:40;3.20;99.90
10492;DHT22;5293;51.464;-2.566;2024-01-15T08:41:06;3.20;99.90
10492;DHT22;5293;51.464;-2.566;2024-01-15T08:43:34;3.10;99.90
10492;DHT22;5293;51.464;-2.566;2024-01-15T08:45:59;3.10;99.90
10492;DHT22;5293;51.464;-2.566;2024-01-15T08:48:26;3.20;99.90
10492;DHT22;5293;51.464;-2.566;2024-01-15T08:50:54;3.20;99.90
10492;DHT22;5293;51.464;-2.566;2024-01-15T08:53:21;3.30;99.90
10492;DHT22;5293;51.464;-2.566;2024-01-15T08:55:46;3.40;99.90
10492;DHT22;5293;51.464;-2.566;2024-01-15T08:58:13;3.40;99.90
10492;DHT22;5293;51.464;-2.566;2024-01-15T09:00:38;3.30;99.90
10492;DHT22;5293;51.464;-2.566;2024-01-15T09:03:04;3.30;99.90
10492;DHT22;5293;51.464;-2.566;2024-01-15T09:05:30;3.20;99.90
10492;DHT22;5293;51.464;-2.566;2024-01-15T09:07:56;3.30;99.90
10492;DHT22;5293;51.464;-2.566;2024-01-15T09:10:22;3.40;99.90
10492;DHT22;5293;51.464;-2.566;2024-01-15T09:12:47;3.40;99.90
10492;DHT22;5293;51.464;-2.566;2024-01-15T09:15:14;3.30;99.90
10492;DHT22;5293;51.464;-2.566;2024-01-15T09:17:40;3.30;99.90
10492;DHT22;5293;51.464;-2.566;2024-01-15T09:20:08;3.30;99.90
10492;DHT22;5293;51.464;-2.566;2024-01-15T09:22:33;3.30;99.90
10492;DHT22;5293;51.464;-2.566;2024-01-15T09:24:59;3.30;99.90
10492;DHT22;5293;51.464;-2.566;2024-01-15T09:27:25;3.30;99.90
10492;DHT22;5293;51.464;-2.566;2024-01-15T09:29:54;3.30;99.90
10492;DHT22;5293;51.464;-2.566;2024-01-15T09:32:19;3.30;99.90
10492;DHT22;5293;51.464;-2.566;2024-01-15T09:34:48;3.40;99.90
10492;DHT22;5293;51.464;-2.566;2024-01-15T09:37:14;3.50;99.90
10492;DHT22;5293;51.464;-2.566;2024-01-15T09:39:41;3.50;99.90
10492;DHT22;5293;51.464;-2.566;2024-01-15T09:42:07;3.50;99.90
10492;DHT22;5293;51.464;-2.566;2024-01-15T09:44:33;3.60;99.90
10492;DHT22;5293;51.464;-2.566;2024-01-15T09:46:59;3.50;99.90
10492;DHT22;5293;51.464;-2.566;2024-01-15T09:49:25;3.50;99.90
10492;DHT22;5293;51.464;-2.566;2024-01-15T09:51:51;3.50;99.90
10492;DHT22;5293;51.464;-2.566;2024-01-15T09:54:16;3.40;99.90
10492;DHT22;5293;51.464;-2.566;2024-01-15T09:56:46;3.50;99.90
10492;DHT22;5293;51.464;-2.566;2024-01-15T09:59:17;3.50;99.90
10492;DHT22;5293;51.464;-2.566;2024-01-15T10:01:44;3.60;99.90
10492;DHT22;5293;51.464;-2.566;2024-01-15T10:04:13;3.50;99.90
10492;DHT22;5293;51.464;-2.566;2024-01-15T10:06:43;3.50;99.90
10492;DHT22;5293;51.464;-2.566;2024-01-15T10:09:12;3.60;99.90
10492;DHT22;5293;51.464;-2.566;2024-01-15T10:11:41;3.60;99.90
10492;DHT22;5293;51.464;-2.566;2024-01-15T10:14:08;3.60;99.90
10492;DHT22;5293;51.464;-2.566;2024-01-15T10:16:34;3.60;99.90
10492;DHT22;5293;51.464;-2.566;2024-01-15T10:18:59;3.60;99.90
10492;DHT22;5293;51.464;-2.566;2024-01-15T10:21:25;3.70;99.90
10492;DHT22;5293;51.464;-2.566;2024-01-15T10:23:52;3.70;99.90
10492;DHT22;5293;51.464;-2.566;2024-01-15T10:26:17;3.70;99.90
10492;DHT22;5293;51.464;-2.566;2024-01-15T10:28:43;3.80;99.90
10492;DHT22;5293;51.464;-2.566;2024-01-15T10:31:09;3.80;99.90
10492;DHT22;5293;51.464;-2.566;2024-01-15T10:33:35;3.80;99.90
10492;DHT22;5293;51.464;-2.566;2024-01-15T10:36:01;3.90;99.90
10492;DHT22;5293;51.464;-2.566;2024-01-15T10:38:27;3.80;99.90
10492;DHT22;5293;51.464;-2.566;2024-01-15T10:40:54;4.00;99.90
10492;DHT22;5293;51.464;-2.566;2024-01-15T10:43:20;4.10;99.90
10492;DHT22;5293;51.464;-2.566;2024-01-15T10:45:47;4.10;99.90
10492;DHT22;5293;51.464;-2.566;2024-01-15T10:48:14;4.10;99.90
10492;DHT22;5293;51.464;-2.566;2024-01-15T10:50:41;4.10;99.90
10492;DHT22;5293;51.464;-2.566;2024-01-15T10:53:08;4.20;99.90
10492;DHT22;5293;51.464;-2.566;2024-01-15T10:55:35;4.20;99.90
10492;DHT22;5293;51.464;-2.566;2024-01-15T10:58:03;4.20;99.90
10492;DHT22;5293;51.464;-2.566;2024-01-15T11:00:33;4.20;99.90
10492;DHT22;5293;51.464;-2.566;2024-01-15T11:03:01;4.20;99.90
10492;DHT22;5293;51.464;-2.566;2024-01-15T11:05:27;4.30;99.90
10492;DHT22;5293;51.464;-2.566;2024-01-15T11:07:58;4.30;99.90
10492;DHT22;5293;51.464;-2.566;2024-01-15T11:10:38;4.30;99.90
10492;DHT22;5293;51.464;-2.566;2024-01-15T11:13:07;4.30;99.90
10492;DHT22;5293;51.464;-2.566;2024-01-15T11:15:57;4.30;99.90
10492;DHT22;5293;51.464;-2.566;2024-01-15T11:18:23;4.40;99.90
10492;DHT22;5293;51.464;-2.566;2024-01-15T11:23:44;4.30;99.90
10492;DHT22;5293;51.464;-2.566;2024-01-15T11:26:38;4.30;99.90
10492;DHT22;5293;51.464;-2.566;2024-01-15T11:34:21;4.50;99.90
10492;DHT22;5293;51.464;-2.566;2024-01-15T11:37:07;4.40;99.90
10492;DHT22;5293;51.464;-2.566;2024-01-15T11:42:00;4.30;99.90
10492;DHT22;5293;51.464;-2.566;2024-01-15T11:44:27;4.40;99.90
10492;DHT22;5293;51.464;-2.566;2024-01-15T11:47:02;4.40;99.90
10492;DHT22;5293;51.464;-2.566;2024-01-15T11:52:20;4.30;99.90
10492;DHT22;5293;51.464;-2.566;2024-01-15T11:54:59;4.40;99.90
10492;DHT22;5293;51.464;-2.566;2024-01-15T12:00:06;4.50;99.90
10492;DHT22;5293;51.464;-2.566;2024-01-15T12:02:32;4.70;99.90
10492;DHT22;5293;51.464;-2.566;2024-01-15T12:04:58;4.70;99.90
10492;DHT22;5293;51.464;-2.566;2024-01-15T12:07:23;4.60;99.90
10492;DHT22;5293;51.464;-2.566;2024-01-15T12:09:49;4.60;99.90
10492;DHT22;5293;51.464;-2.566;2024-01-15T12:12:24;4.60;99.90
10492;DHT22;5293;51.464;-2.566;2024-01-15T12:14:52;4.50;99.90
10492;DHT22;5293;51.464;-2.566;2024-01-15T12:17:18;4.40;99.90
10492;DHT22;5293;51.464;-2.566;2024-01-15T12:19:44;4.40;99.90
10492;DHT22;5293;51.464;-2.566;2024-01-15T12:22:10;4.50;99.90
10492;DHT22;5293;51.464;-2.566;2024-01-15T12:24:35;4.50;99.90
10492;DHT22;5293;51.464;-2.566;2024-01-15T12:27:01;4.60;99.90
10492;DHT22;5293;51.464;-2.566;2024-01-15T12:29:27;4.60;99.90
10492;DHT22;5293;51.464;-2.566;2024-01-15T12:31:53;4.70;99.90
10492;DHT22;5293;51.464;-2.566;2024-01-15T12:34:19;4.70;99.90
10492;DHT22;5293;51.464;-2.566;2024-01-15T12:36:46;4.60;99.90
10492;DHT22;5293;51.464;-2.566;2024-01-15T12:39:12;4.60;99.90
10492;DHT22;5293;51.464;-2.566;2024-01-15T12:41:39;4.60;99.90
10492;DHT22;5293;51.464;-2.566;2024-01-15T12:44:05;4.70;99.90
10492;DHT22;5293;51.464;-2.566;2024-01-15T12:46:31;4.70;99.90
10492;DHT22;5293;51.464;-2.566;2024-01-15T12:48:57;4.70;99.90
10492;DHT22;5293;51.464;-2.566;2024-01-15T12:51:26;4.70;99.90
10492;DHT22;5293;51.464;-2.566;2024-01-15T12:53:53;4.70;99.90
10492;DHT22;5293;51.464;-2.566;2024-01-15T12:56:18;4.70;99.90
10492;DHT22;5293;51.464;-2.566;2024-01-15T12:58:44;4.70;99.90
10492;DHT22;5293;51.464;-2.566;2024-01-15T13:01:10;4.70;99.90
10492;DHT22;5293;51.464;-2.566;2024-01-15T13:03:35;4.70;99.90
10492;DHT22;5293;51.464;-2.566;2024-01-15T13:06:01;4.70;99.90
10492;DHT22;5293;51.464;-2.566;2024-01-15T13:08:27;4.70;99.90
10492;DHT22;5293;51.464;-2.566;2024-01-15T13:10:55;4.80;99.90
10492;DHT22;5293;51.464;-2.566;2024-01-15T13:13:22;4.80;99.90
10492;DHT22;5293;51.464;-2.566;2024-01-15T13:15:48;4.80;99.90
10492;DHT22;5293;51.464;-2.566;2024-01-15T13:18:14;4.80;99.90
10492;DHT22;5293;51.464;-2.566;2024-01-15T13:20:39;4.80;99.90
10492;DHT22;5293;51.464;-2.566;2024-01-15T13:23:05;4.80;99.90
10492;DHT22;5293;51.464;-2.566;2024-01-15T13:25:31;4.70;99.90
10492;DHT22;5293;51.464;-2.566;2024-01-15T13:27:57;4.70;99.90
10492;DHT22;5293;51.464;-2.566;2024-01-15T13:30:23;4.70;99.90
10492;DHT22;5293;51.464;-2.566;2024-01-15T13:32:49;4.70;99.90
10492;DHT22;5293;51.464;-2.566;2024-01-15T13:35:14;4.70;99.90
10492;DHT22;5293;51.464;-2.566;2024-01-15T13:37:40;4.70;99.90
10492;DHT22;5293;51.464;-2.566;2024-01-15T13:40:07;4.70;99.90
10492;DHT22;5293;51.464;-2.566;2024-01-15T13:42:35;4.70;99.90
10492;DHT22;5293;51.464;-2.566;2024-01-15T13:45:05;4.70;99.90
10492;DHT22;5293;51.464;-2.566;2024-01-15T13:47:31;4.70;99.90
10492;DHT22;5293;51.464;-2.566;2024-01-15T13:49:57;4.80;99.90
10492;DHT22;5293;51.464;-2.566;2024-01-15T13:52:23;4.80;99.90
10492;DHT22;5293;51.464;-2.566;2024-01-15T13:54:49;4.80;99.90
10492;DHT22;5293;51.464;-2.566;2024-01-15T13:57:15;4.70;99.90
10492;DHT22;5293;51.464;-2.566;2024-01-15T13:59:41;4.70;99.90
10492;DHT22;5293;51.464;-2.566;2024-01-15T14:02:06;4.80;99.90
10492;DHT22;5293;51.464;-2.566;2024-01-15T14:04:32;4.80;99.90
10492;DHT22;5293;51.464;-2.566;2024-01-15T14:06:58;4.80;99.90
10492;DHT22;5293;51.464;-2.566;2024-01-15T14:09:23;4.80;99.90
10492;DHT22;5293;51.464;-2.566;2024-01-15T14:11:50;4.80;99.90
10492;DHT22;5293;51.464;-2.566;2024-01-15T14:14:16;4.80;99.90
10492;DHT22;5293;51.464;-2.566;2024-01-15T14:16:42;4.70;99.90
10492;DHT22;5293;51.464;-2.566;2024-01-15T14:19:08;4.70;99.90
10492;DHT22;5293;51.464;-2.566;2024-01-15T14:21:35;4.70;99.90
10492;DHT22;5293;51.464;-2.566;2024-01-15T14:24:01;4.70;99.90
10492;DHT22;5293;51.464;-2.566;2024-01-15T14:26:26;4.70;99.90
10492;DHT22;5293;51.464;-2.566;2024-01-15T14:28:53;4.70;99.90
10492;DHT22;5293;51.464;-2.566;2024-01-15T14:31:20;4.70;99.90
10492;DHT22;5293;51.464;-2.566;2024-01-15T14:33:46;4.70;99.90
10492;DHT22;5293;51.464;-2.566;2024-01-15T14:36:11;4.80;99.90
10492;DHT22;5293;51.464;-2.566;2024-01-15T14:38:37;4.80;99.90
10492;DHT22;5293;51.464;-2.566;2024-01-15T14:41:03;4.80;99.90
10492;DHT22;5293;51.464;-2.566;2024-01-15T14:43:29;4.70;99.90
10492;DHT22;5293;51.464;-2.566;2024-01-15T14:45:55;4.70;99.90
10492;DHT22;5293;51.464;-2.566;2024-01-15T14:48:20;4.60;99.90
10492;DHT22;5293;51.464;-2.566;2024-01-15T14:50:46;4.60;99.90
10492;DHT22;5293;51.464;-2.566;2024-01-15T14:53:12;4.60;99.90
10492;DHT22;5293;51.464;-2.566;2024-01-15T14:55:37;4.60;99.90
10492;DHT22;5293;51.464;-2.566;2024-01-15T14:58:03;4.60;99.90
10492;DHT22;5293;51.464;-2.566;2024-01-15T15:00:29;4.60;99.90
10492;DHT22;5293;51.464;-2.566;2024-01-15T15:02:54;4.60;99.90
10492;DHT22;5293;51.464;-2.566;2024-01-15T15:05:20;4.60;99.90
10492;DHT22;5293;51.464;-2.566;2024-01-15T15:07:46;4.60;99.90
10492;DHT22;5293;51.464;-2.566;2024-01-15T15:10:11;4.60;99.90
10492;DHT22;5293;51.464;-2.566;2024-01-15T15:12:37;4.60;99.90
10492;DHT22;5293;51.464;-2.566;2024-01-15T15:15:03;4.60;99.90
10492;DHT22;5293;51.464;-2.566;2024-01-15T15:17:29;4.50;99.90
10492;DHT22;5293;51.464;-2.566;2024-01-15T15:19:55;4.50;99.90
10492;DHT22;5293;51.464;-2.566;2024-01-15T15:22:21;4.60;99.90
10492;DHT22;5293;51.464;-2.566;2024-01-15T15:24:46;4.50;99.90
10492;DHT22;5293;51.464;-2.566;2024-01-15T15:27:12;4.60;99.90
10492;DHT22;5293;51.464;-2.566;2024-01-15T15:29:38;4.50;99.90
10492;DHT22;5293;51.464;-2.566;2024-01-15T15:32:04;4.50;99.90
10492;DHT22;5293;51.464;-2.566;2024-01-15T15:34:30;4.50;99.90
10492;DHT22;5293;51.464;-2.566;2024-01-15T15:36:55;4.50;99.90
10492;DHT22;5293;51.464;-2.566;2024-01-15T15:39:21;4.50;99.90
10492;DHT22;5293;51.464;-2.566;2024-01-15T15:41:47;4.50;99.90
10492;DHT22;5293;51.464;-2.566;2024-01-15T15:44:14;4.50;99.90
10492;DHT22;5293;51.464;-2.566;2024-01-15T15:46:42;4.50;99.90
10492;DHT22;5293;51.464;-2.566;2024-01-15T15:49:08;4.40;99.90
10492;DHT22;5293;51.464;-2.566;2024-01-15T15:51:34;4.50;99.90
10492;DHT22;5293;51.464;-2.566;2024-01-15T15:54:01;4.50;99.90
10492;DHT22;5293;51.464;-2.566;2024-01-15T15:56:27;4.50;99.90